Time;durP1;ratioP1;P1;durP2;ratioP2;P2;SDS_P1;SDS_P2;PMS_P1;PMS_P2;Temp;Humidity;BMP_temperature;BMP_pressure;BME280_temperature;BME280_humidity;BME280_pressure;Samples;Min_cycle;Max_cycle;Signal;HPM_P1;HPM_P2
2020/12/21 00:02:14;;;;;;;22.10;13.23;;;7.10;99.90;;;;;;5040367;28;20034;-52
2020/12/21 00:04:41;;;;;;;20.15;12.25;;;7.10;99.90;;;;;;5036553;28;20030;-52
2020/12/21 00:07:06;;;;;;;20.38;12.68;;;7.20;99.90;;;;;;5041840;28;20021;-55
2020/12/21 00:09:32;;;;;;;18.17;11.60;;;7.10;99.90;;;;;;5040845;28;20047;-52
2020/12/21 00:11:57;;;;;;;19.10;11.60;;;7.10;99.90;;;;;;5038996;28;20504;-52
2020/12/21 00:14:23;;;;;;;18.65;11.98;;;7.10;99.90;;;;;;5042703;28;20045;-50
2020/12/21 00:16:50;;;;;;;19.83;12.63;;;7.00;99.90;;;;;;5039587;28;20025;-48
2020/12/21 00:19:18;;;;;;;21.88;12.52;;;7.00;99.90;;;;;;5041070;28;20452;-49
2020/12/21 00:21:44;;;;;;;18.30;12.23;;;7.00;99.90;;;;;;5039640;28;20382;-49
2020/12/21 00:24:10;;;;;;;17.02;12.27;;;7.00;99.90;;;;;;5041761;28;20024;-50
2020/12/21 00:26:36;;;;;;;19.20;13.52;;;7.00;99.90;;;;;;5042313;28;20492;-50
2020/12/21 00:29:02;;;;;;;22.00;12.50;;;7.00;99.90;;;;;;5039930;28;20542;-49
2020/12/21 00:31:30;;;;;;;19.75;12.40;;;7.00;99.90;;;;;;5040718;28;20030;-49
2020/12/21 00:33:57;;;;;;;20.20;11.77;;;6.90;99.90;;;;;;5041911;28;20243;-49
2020/12/21 00:36:23;;;;;;;18.65;12.10;;;6.90;99.90;;;;;;5043086;28;20552;-49
2020/12/21 00:38:49;;;;;;;20.70;12.15;;;6.90;99.90;;;;;;5039390;28;20033;-48
2020/12/21 00:41:17;;;;;;;18.30;12.57;;;6.80;99.90;;;;;;5040297;28;20024;-48
2020/12/21 00:43:45;;;;;;;20.65;12.32;;;6.80;99.90;;;;;;5042896;28;20085;-48
2020/12/21 00:46:12;;;;;;;18.88;12.80;;;6.80;99.90;;;;;;5035102;28;20113;-48
2020/12/21 00:48:38;;;;;;;19.13;12.40;;;6.70;99.90;;;;;;5040659;28;20060;-48
2020/12/21 00:51:05;;;;;;;19.10;12.30;;;6.70;99.90;;;;;;5044661;28;21276;-48
2020/12/21 00:53:30;;;;;;;21.40;12.45;;;6.80;99.90;;;;;;5035513;28;20031;-48
2020/12/21 00:55:55;;;;;;;21.08;12.75;;;6.80;99.90;;;;;;5035116;28;20020;-48
2020/12/21 00:58:21;;;;;;;19.95;12.30;;;6.80;99.90;;;;;;5037419;28;20029;-48
2020/12/21 01:00:46;;;;;;;17.90;11.63;;;6.80;99.90;;;;;;5035787;28;20487;-48
2020/12/21 01:03:15;;;;;;;19.42;12.40;;;6.80;99.90;;;;;;5039764;28;20072;-48
2020/12/21 01:05:40;;;;;;;19.70;12.02;;;6.80;99.90;;;;;;5043577;28;20030;-48
2020/12/21 01:08:05;;;;;;;19.60;12.40;;;6.80;99.90;;;;;;5036049;28;20041;-48
2020/12/21 01:10:31;;;;;;;16.90;11.32;;;6.80;99.90;;;;;;5044237;28;20033;-48
2020/12/21 01:12:56;;;;;;;19.83;12.50;;;6.80;99.90;;;;;;5037233;28;20036;-48
2020/12/21 01:15:22;;;;;;;18.25;11.30;;;6.80;99.90;;;;;;5042309;28;20438;-48
2020/12/21 01:17:47;;;;;;;23.83;13.00;;;6.80;99.90;;;;;;5044477;28;20025;-49
2020/12/21 01:20:13;;;;;;;18.02;11.65;;;6.80;99.90;;;;;;5031653;28;20035;-48
2020/12/21 01:22:39;;;;;;;18.83;12.13;;;6.70;99.90;;;;;;5036074;28;20538;-48
2020/12/21 01:25:06;;;;;;;18.52;11.55;;;6.70;99.90;;;;;;5043082;28;20072;-48
2020/12/21 01:27:32;;;;;;;17.85;11.65;;;6.70;99.90;;;;;;5040847;28;20060;-48
2020/12/21 01:29:58;;;;;;;22.25;12.48;;;6.70;99.90;;;;;;5045302;28;20477;-49
2020/12/21 01:32:23;;;;;;;21.20;12.60;;;6.70;99.90;;;;;;5043388;28;20056;-49
2020/12/21 01:34:49;;;;;;;25.50;12.50;;;6.80;99.90;;;;;;5036776;28;20053;-49
2020/12/21 01:37:15;;;;;;;18.60;12.23;;;6.80;99.90;;;;;;5038934;28;20614;-49
2020/12/21 01:39:48;;;;;;;23.55;13.02;;;6.70;99.90;;;;;;5041798;28;20026;-49
2020/12/21 01:42:14;;;;;;;22.67;12.10;;;6.80;99.90;;;;;;5035538;28;20021;-49
2020/12/21 01:44:40;;;;;;;25.98;13.60;;;6.80;99.90;;;;;;5035643;28;20454;-51
2020/12/21 01:47:06;;;;;;;21.10;12.13;;;6.80;99.90;;;;;;5032739;28;20075;-51
2020/12/21 01:49:32;;;;;;;21.27;12.13;;;6.80;99.90;;;;;;5033172;28;20032;-49
2020/12/21 01:51:57;;;;;;;21.70;12.90;;;6.80;99.90;;;;;;5031717;28;20475;-49
2020/12/21 01:54:23;;;;;;;22.52;12.77;;;6.80;99.90;;;;;;5041863;28;20104;-49
2020/12/21 01:56:53;;;;;;;19.10;11.10;;;6.80;99.90;;;;;;5039926;28;20060;-49
2020/12/21 01:59:19;;;;;;;25.10;13.35;;;6.80;99.90;;;;;;5038171;28;20056;-49
2020/12/21 02:01:45;;;;;;;23.58;13.40;;;6.80;99.90;;;;;;5030890;28;20546;-49
2020/12/21 02:04:11;;;;;;;21.95;12.98;;;6.80;99.90;;;;;;5044597;28;20325;-50
2020/12/21 02:06:38;;;;;;;18.48;12.07;;;6.80;99.90;;;;;;5041157;28;20039;-49
2020/12/21 02:09:03;;;;;;;22.25;12.32;;;6.80;99.90;;;;;;5037245;28;20548;-49
2020/12/21 02:11:29;;;;;;;25.38;12.48;;;6.80;99.90;;;;;;5033250;28;20041;-49
2020/12/21 02:13:54;;;;;;;19.60;12.40;;;6.80;99.90;;;;;;5040947;28;20466;-49
2020/12/21 02:16:20;;;;;;;19.65;10.85;;;6.80;99.90;;;;;;5034400;28;20104;-49
2020/12/21 02:18:46;;;;;;;20.40;10.98;;;6.90;99.90;;;;;;5034557;28;20375;-50
2020/12/21 02:21:12;;;;;;;20.25;11.48;;;6.80;99.90;;;;;;5039282;28;20021;-49
2020/12/21 02:23:37;;;;;;;20.85;11.15;;;6.80;99.90;;;;;;5033802;28;20021;-52
2020/12/21 02:26:03;;;;;;;15.60;10.70;;;6.80;99.90;;;;;;5031827;28;20563;-52
2020/12/21 02:28:28;;;;;;;15.15;10.25;;;6.80;99.90;;;;;;5037358;28;20106;-52
2020/12/21 02:30:54;;;;;;;18.15;10.57;;;6.80;99.90;;;;;;5043225;28;20053;-51
2020/12/21 02:33:19;;;;;;;15.98;10.52;;;6.80;99.90;;;;;;5043132;28;20140;-53
2020/12/21 02:35:45;;;;;;;16.65;10.90;;;6.90;99.90;;;;;;5040428;28;20034;-52
2020/12/21 02:38:10;;;;;;;17.13;11.00;;;6.90;99.90;;;;;;5043790;28;20047;-53
2020/12/21 02:40:37;;;;;;;18.13;10.95;;;6.90;99.90;;;;;;5035634;28;20032;-52
2020/12/21 02:43:02;;;;;;;17.85;11.60;;;6.90;99.90;;;;;;5033863;28;20382;-53
2020/12/21 02:45:28;;;;;;;20.20;11.57;;;6.90;99.90;;;;;;5035742;28;20033;-52
2020/12/21 02:47:54;;;;;;;19.88;11.55;;;6.80;99.90;;;;;;5031387;28;20033;-51
2020/12/21 02:50:19;;;;;;;20.00;10.85;;;6.70;99.90;;;;;;5034588;28;20033;-53
2020/12/21 02:52:45;;;;;;;18.10;10.25;;;6.70;99.90;;;;;;5040143;28;20354;-53
2020/12/21 02:55:10;;;;;;;22.23;11.40;;;6.70;99.90;;;;;;5031398;28;20081;-53
2020/12/21 02:57:36;;;;;;;26.15;12.25;;;6.60;99.90;;;;;;5039827;28;20053;-52
2020/12/21 03:00:05;;;;;;;19.63;10.75;;;6.60;99.90;;;;;;5035060;28;20499;-52
2020/12/21 03:02:30;;;;;;;16.73;10.70;;;6.60;99.90;;;;;;5035018;28;20105;-50
2020/12/21 03:04:55;;;;;;;22.75;12.45;;;6.60;99.90;;;;;;5036989;28;20029;-49
2020/12/21 03:07:21;;;;;;;20.13;12.27;;;6.60;99.90;;;;;;5036920;28;20032;-51
2020/12/21 03:09:46;;;;;;;23.02;13.15;;;6.50;99.90;;;;;;5040579;28;20128;-51
2020/12/21 03:12:12;;;;;;;23.55;11.85;;;6.50;99.90;;;;;;5043692;28;20041;-50
2020/12/21 03:14:37;;;;;;;20.45;12.43;;;6.50;99.90;;;;;;5034196;28;20027;-49
2020/12/21 03:17:03;;;;;;;20.02;12.57;;;6.40;99.90;;;;;;5040223;28;20063;-49
2020/12/21 03:19:29;;;;;;;20.55;11.68;;;6.40;99.90;;;;;;5041047;28;20506;-51
2020/12/21 03:21:54;;;;;;;23.85;12.30;;;6.40;99.90;;;;;;5033334;28;20418;-52
2020/12/21 03:24:19;;;;;;;25.23;13.77;;;6.40;99.90;;;;;;5039254;28;20082;-49
2020/12/21 03:26:45;;;;;;;24.98;12.15;;;6.40;99.90;;;;;;5035841;28;20139;-48
2020/12/21 03:29:10;;;;;;;22.42;12.00;;;6.40;99.90;;;;;;5039288;28;20024;-50
2020/12/21 03:31:36;;;;;;;24.33;13.45;;;6.50;99.90;;;;;;5033037;28;20541;-49
2020/12/21 03:34:01;;;;;;;26.73;13.50;;;6.50;99.90;;;;;;5032125;28;20060;-49
2020/12/21 03:36:27;;;;;;;22.48;11.95;;;6.50;99.90;;;;;;5034844;28;20033;-51
2020/12/21 03:38:52;;;;;;;25.70;13.40;;;6.40;99.90;;;;;;5045055;28;20025;-52
2020/12/21 03:41:18;;;;;;;21.00;12.88;;;6.40;99.90;;;;;;5041747;28;20499;-51
2020/12/21 03:43:43;;;;;;;23.17;13.40;;;6.40;99.90;;;;;;5038862;28;20092;-51
2020/12/21 03:46:09;;;;;;;22.42;13.20;;;6.30;99.90;;;;;;5041005;28;20071;-49
2020/12/21 03:48:34;;;;;;;18.73;12.38;;;6.30;99.90;;;;;;5033072;28;20498;-51
2020/12/21 03:51:00;;;;;;;22.83;13.88;;;6.30;99.90;;;;;;5040043;28;20079;-50
2020/12/21 03:53:25;;;;;;;29.30;13.65;;;6.30;99.90;;;;;;5043059;28;20033;-49
2020/12/21 03:55:51;;;;;;;24.70;13.85;;;6.20;99.90;;;;;;5039312;28;20033;-48
2020/12/21 03:58:16;;;;;;;21.25;12.65;;;6.20;99.90;;;;;;5048814;28;20503;-49
2020/12/21 04:00:42;;;;;;;21.08;12.20;;;6.20;99.90;;;;;;5048405;28;20109;-48
2020/12/21 04:03:07;;;;;;;20.83;13.13;;;6.20;99.90;;;;;;5041048;28;20044;-47
2020/12/21 04:05:33;;;;;;;23.88;13.43;;;6.10;99.90;;;;;;5027617;28;20037;-48
2020/12/21 04:07:58;;;;;;;25.52;13.95;;;6.10;99.90;;;;;;5028255;28;20120;-49
2020/12/21 04:10:23;;;;;;;24.75;13.38;;;6.10;99.90;;;;;;5028500;28;20029;-50
2020/12/21 04:12:49;;;;;;;22.08;13.18;;;6.10;99.90;;;;;;5026902;28;20025;-50
2020/12/21 04:15:14;;;;;;;24.45;13.93;;;6.00;99.90;;;;;;5027487;28;20039;-49
2020/12/21 04:17:40;;;;;;;24.00;13.40;;;6.10;99.90;;;;;;5028045;28;20380;-49
2020/12/21 04:20:05;;;;;;;26.65;14.13;;;6.00;99.90;;;;;;5028158;28;20396;-49
2020/12/21 04:22:31;;;;;;;24.42;12.88;;;6.00;99.90;;;;;;5028068;28;20222;-49
2020/12/21 04:24:56;;;;;;;29.67;14.60;;;6.00;99.90;;;;;;5027613;28;20017;-50
2020/12/21 04:27:22;;;;;;;24.08;14.85;;;6.00;99.90;;;;;;5028192;28;20517;-48
2020/12/21 04:29:48;;;;;;;26.17;14.43;;;6.00;99.90;;;;;;5028143;28;20643;-49
2020/12/21 04:32:13;;;;;;;25.50;14.75;;;6.00;99.90;;;;;;5027912;28;20022;-50
2020/12/21 04:34:38;;;;;;;25.77;15.43;;;6.00;99.90;;;;;;5026476;28;20021;-49
2020/12/21 04:37:04;;;;;;;27.00;13.57;;;6.10;99.90;;;;;;5028038;28;20067;-50
2020/12/21 04:39:30;;;;;;;23.92;14.60;;;6.10;99.90;;;;;;5027646;28;20032;-52
2020/12/21 04:41:58;;;;;;;24.17;13.45;;;6.00;99.90;;;;;;5031780;28;20108;-50
2020/12/21 04:44:24;;;;;;;21.38;13.15;;;6.10;99.90;;;;;;5031232;28;20489;-47
2020/12/21 04:46:57;;;;;;;28.33;13.70;;;6.10;99.90;;;;;;5031039;28;20509;-49
2020/12/21 04:49:23;;;;;;;20.13;12.55;;;6.20;99.90;;;;;;5031274;28;20501;-50
2020/12/21 04:51:50;;;;;;;23.90;14.15;;;6.10;99.90;;;;;;5031691;28;20036;-48
2020/12/21 04:54:19;;;;;;;26.08;13.70;;;6.10;99.90;;;;;;5031442;28;20391;-50
2020/12/21 04:56:45;;;;;;;23.38;13.52;;;6.20;99.90;;;;;;5031085;28;20022;-49
2020/12/21 04:59:12;;;;;;;24.27;12.63;;;6.10;99.90;;;;;;5031596;28;20021;-49
2020/12/21 05:01:38;;;;;;;25.27;13.55;;;6.10;99.90;;;;;;5031014;28;20494;-49
2020/12/21 05:04:04;;;;;;;21.60;12.20;;;6.10;99.90;;;;;;5031226;28;20068;-50
2020/12/21 05:06:30;;;;;;;27.17;13.52;;;6.10;99.90;;;;;;5030736;28;20087;-49
2020/12/21 05:09:06;;;;;;;26.83;13.07;;;6.10;99.90;;;;;;5030642;28;20061;-49
2020/12/21 05:11:53;;;;;;;24.60;12.70;;;6.10;99.90;;;;;;5034765;28;20087;-49
2020/12/21 05:14:19;;;;;;;19.50;12.60;;;6.10;99.90;;;;;;5025821;28;20250;-50
2020/12/21 05:16:44;;;;;;;23.98;11.27;;;6.10;99.90;;;;;;5038450;28;20021;-49
2020/12/21 05:19:21;;;;;;;24.13;10.93;;;6.10;99.90;;;;;;5038002;28;20415;-49
2020/12/21 05:21:53;;;;;;;22.90;12.20;;;6.20;99.90;;;;;;5039137;28;20021;-48
2020/12/21 05:24:22;;;;;;;23.83;11.77;;;6.10;99.90;;;;;;5037229;28;20018;-50
2020/12/21 05:26:48;;;;;;;20.58;11.23;;;6.10;99.90;;;;;;5038119;28;20036;-49
2020/12/21 05:29:26;;;;;;;19.60;11.45;;;6.10;99.90;;;;;;5036492;28;20025;-48
2020/12/21 05:31:52;;;;;;;18.77;12.18;;;6.10;99.90;;;;;;5038937;28;20115;-49
2020/12/21 05:34:28;;;;;;;24.50;11.65;;;6.10;99.90;;;;;;5037382;28;20088;-48
2020/12/21 05:36:53;;;;;;;22.98;11.45;;;6.20;99.90;;;;;;5038871;28;20040;-48
2020/12/21 05:39:21;;;;;;;20.88;10.88;;;6.20;99.90;;;;;;5036614;28;20032;-48
2020/12/21 05:41:46;;;;;;;18.42;10.55;;;6.20;99.90;;;;;;5042612;28;20013;-48
2020/12/21 05:44:12;;;;;;;19.27;10.68;;;6.30;99.90;;;;;;5036227;28;20037;-50
2020/12/21 05:46:37;;;;;;;19.45;10.98;;;6.20;99.90;;;;;;5038783;28;20033;-49
2020/12/21 05:49:03;;;;;;;21.38;11.05;;;6.30;99.90;;;;;;5037537;28;20033;-49
2020/12/21 05:51:37;;;;;;;19.17;9.77;;;6.20;99.90;;;;;;5037368;28;20017;-48
2020/12/21 05:54:05;;;;;;;17.25;9.52;;;6.20;99.90;;;;;;5038840;28;20045;-51
2020/12/21 05:56:35;;;;;;;22.13;9.95;;;6.30;99.90;;;;;;5037518;28;20020;-45
2020/12/21 05:59:01;;;;;;;22.35;9.95;;;6.20;99.90;;;;;;5036318;28;20025;-48
2020/12/21 06:01:27;;;;;;;17.60;8.68;;;6.20;99.90;;;;;;5037960;28;20403;-44
2020/12/21 06:04:00;;;;;;;19.50;9.60;;;6.20;99.90;;;;;;5038280;28;20444;-45
2020/12/21 06:06:33;;;;;;;15.20;8.20;;;6.20;99.90;;;;;;5036149;28;20030;-45
2020/12/21 06:09:00;;;;;;;16.42;8.45;;;6.30;99.90;;;;;;5037556;28;20076;-48
2020/12/21 06:11:34;;;;;;;18.23;9.50;;;6.30;99.90;;;;;;5037897;28;20681;-46
2020/12/21 06:14:03;;;;;;;18.90;8.85;;;6.20;99.90;;;;;;5034579;28;20029;-44
2020/12/21 06:16:30;;;;;;;18.55;9.60;;;6.20;99.90;;;;;;5036187;28;20017;-44
2020/12/21 06:18:58;;;;;;;15.75;8.65;;;6.10;99.90;;;;;;5033341;28;20021;-45
2020/12/21 06:21:31;;;;;;;19.80;8.82;;;6.20;99.90;;;;;;5034393;28;20528;-44
2020/12/21 06:23:57;;;;;;;17.45;8.82;;;6.20;99.90;;;;;;5031648;28;20104;-46
2020/12/21 06:26:38;;;;;;;20.25;8.38;;;6.20;99.90;;;;;;5039041;28;20033;-45
2020/12/21 06:29:09;;;;;;;25.70;8.38;;;6.20;99.90;;;;;;5036710;28;20030;-44
2020/12/21 06:31:40;;;;;;;21.80;9.00;;;6.20;99.90;;;;;;5041414;28;20483;-46
2020/12/21 06:34:07;;;;;;;24.27;10.20;;;6.20;99.90;;;;;;5040972;28;20051;-44
2020/12/21 06:36:33;;;;;;;18.35;9.20;;;6.10;99.90;;;;;;5038586;28;20502;-44
2020/12/21 06:38:59;;;;;;;14.98;9.60;;;6.10;99.90;;;;;;5034121;28;20029;-46
2020/12/21 06:41:26;;;;;;;15.52;8.98;;;6.10;99.90;;;;;;5039536;28;20095;-44
2020/12/21 06:44:03;;;;;;;24.77;10.43;;;6.10;99.90;;;;;;5032411;28;20378;-50
2020/12/21 06:46:29;;;;;;;19.83;9.68;;;6.10;99.90;;;;;;5039173;28;20033;-49
2020/12/21 06:49:10;;;;;;;18.40;8.98;;;6.20;99.90;;;;;;5033844;28;20041;-49
2020/12/21 06:52:02;;;;;;;19.45;9.45;;;6.10;99.90;;;;;;5041272;28;20086;-51
2020/12/21 06:54:27;;;;;;;26.65;10.30;;;6.10;99.90;;;;;;5035750;28;20583;-49
2020/12/21 06:56:53;;;;;;;21.85;9.57;;;6.10;99.90;;;;;;5036504;28;20037;-49
2020/12/21 06:59:21;;;;;;;15.98;9.88;;;6.00;99.90;;;;;;5033103;28;20120;-50
2020/12/21 07:01:48;;;;;;;20.90;10.00;;;6.00;99.90;;;;;;5040594;28;20104;-49
2020/12/21 07:04:22;;;;;;;16.70;9.82;;;5.90;99.90;;;;;;5038121;28;20394;-49
2020/12/21 07:06:50;;;;;;;17.70;10.20;;;5.90;99.90;;;;;;5037215;28;20025;-49
2020/12/21 07:09:25;;;;;;;16.70;8.68;;;5.90;99.90;;;;;;5035652;28;20059;-49
2020/12/21 07:12:05;;;;;;;21.35;10.20;;;5.90;99.90;;;;;;5036791;28;20229;-48
2020/12/21 07:14:34;;;;;;;17.15;9.10;;;5.80;99.90;;;;;;5032169;28;20030;-49
2020/12/21 07:17:16;;;;;;;23.20;10.30;;;5.80;99.90;;;;;;5034501;28;20044;-49
2020/12/21 07:19:43;;;;;;;16.00;9.20;;;5.80;99.90;;;;;;5038919;28;20086;-51
2020/12/21 07:22:10;;;;;;;25.83;10.40;;;5.80;99.90;;;;;;5032414;28;20043;-45
2020/12/21 07:24:37;;;;;;;16.50;9.48;;;5.80;99.90;;;;;;5037372;28;20091;-44
2020/12/21 07:27:02;;;;;;;22.08;9.73;;;5.80;99.90;;;;;;5037055;28;20390;-45
2020/12/21 07:29:32;;;;;;;17.65;9.25;;;5.80;99.90;;;;;;5033794;28;20033;-44
2020/12/21 07:31:59;;;;;;;17.63;9.75;;;5.80;99.90;;;;;;5039588;28;20029;-44
2020/12/21 07:34:24;;;;;;;22.90;9.10;;;5.70;99.90;;;;;;5041331;28;20158;-45
2020/12/21 07:36:50;;;;;;;25.25;10.25;;;5.70;99.90;;;;;;5042095;28;20033;-44
2020/12/21 07:39:17;;;;;;;24.75;10.50;;;5.70;99.90;;;;;;5035406;28;20044;-44
2020/12/21 07:41:44;;;;;;;19.65;9.45;;;5.60;99.90;;;;;;5035926;28;20452;-45
2020/12/21 07:44:13;;;;;;;22.27;9.05;;;5.70;99.90;;;;;;5043696;28;20030;-44
2020/12/21 07:46:43;;;;;;;23.27;11.05;;;5.70;99.90;;;;;;5038418;28;20060;-44
2020/12/21 07:49:10;;;;;;;21.70;9.93;;;5.60;99.90;;;;;;5037931;28;20028;-45
2020/12/21 07:51:37;;;;;;;19.73;9.63;;;5.60;99.90;;;;;;5039503;28;20100;-44
2020/12/21 07:54:03;;;;;;;18.80;8.90;;;5.70;99.90;;;;;;5033704;28;20037;-45
2020/12/21 07:56:29;;;;;;;17.70;8.85;;;5.70;99.90;;;;;;5030522;28;20177;-42
2020/12/21 07:58:54;;;;;;;19.15;9.27;;;5.80;99.90;;;;;;5033634;28;20024;-44
2020/12/21 08:01:21;;;;;;;20.35;9.45;;;5.80;99.90;;;;;;5035428;28;20279;-46
2020/12/21 08:03:50;;;;;;;25.20;9.73;;;5.80;99.90;;;;;;5034086;28;20022;-44
2020/12/21 08:06:18;;;;;;;19.63;9.68;;;5.80;99.90;;;;;;5037469;28;20036;-45
2020/12/21 08:08:44;;;;;;;21.90;8.57;;;5.80;99.90;;;;;;5033436;28;20057;-51
2020/12/21 08:11:15;;;;;;;15.32;8.32;;;5.80;99.90;;;;;;5032937;28;20589;-45
2020/12/21 08:13:49;;;;;;;17.38;9.10;;;5.90;99.90;;;;;;5035988;28;20063;-46
2020/12/21 08:16:15;;;;;;;15.25;7.97;;;5.90;99.90;;;;;;5040117;28;20032;-44
2020/12/21 08:18:45;;;;;;;16.50;8.95;;;5.80;99.90;;;;;;5038237;28;20108;-44
2020/12/21 08:21:14;;;;;;;16.20;8.02;;;5.90;99.90;;;;;;5041035;28;20032;-47
2020/12/21 08:23:40;;;;;;;17.08;8.10;;;5.90;99.90;;;;;;5037634;28;20053;-45
2020/12/21 08:26:16;;;;;;;21.88;8.55;;;5.90;99.90;;;;;;5040589;28;20045;-45
2020/12/21 08:28:41;;;;;;;14.20;8.10;;;5.90;99.90;;;;;;5043698;28;20048;-44
2020/12/21 08:31:14;;;;;;;13.35;7.45;;;5.80;99.90;;;;;;5040428;28;20029;-44
2020/12/21 08:34:00;;;;;;;16.83;8.40;;;5.80;99.90;;;;;;5041324;28;20033;-44
2020/12/21 08:36:31;;;;;;;18.83;7.32;;;5.80;99.90;;;;;;5039231;28;20116;-47
2020/12/21 08:39:14;;;;;;;16.70;8.13;;;5.80;99.90;;;;;;5038223;28;20029;-46
2020/12/21 08:41:45;;;;;;;17.67;8.10;;;5.90;99.90;;;;;;5047999;28;20025;-46
2020/12/21 08:44:29;;;;;;;22.40;9.05;;;5.90;99.90;;;;;;5044448;28;20025;-46
2020/12/21 08:46:56;;;;;;;21.33;8.15;;;5.90;99.90;;;;;;5042043;28;20148;-47
2020/12/21 08:49:22;;;;;;;15.88;7.43;;;5.90;99.90;;;;;;5042518;28;20017;-45
2020/12/21 08:51:49;;;;;;;15.68;7.25;;;6.00;99.90;;;;;;5064223;28;20029;-45
2020/12/21 08:54:15;;;;;;;14.68;7.35;;;6.00;99.90;;;;;;5054075;28;20159;-44
2020/12/21 08:56:48;;;;;;;18.95;7.93;;;6.00;99.90;;;;;;5050726;28;20443;-44
2020/12/21 08:59:15;;;;;;;20.08;7.85;;;6.10;99.90;;;;;;5054425;28;20024;-45
2020/12/21 09:01:43;;;;;;;15.43;6.90;;;6.20;99.90;;;;;;5045600;28;20569;-49
2020/12/21 09:04:09;;;;;;;13.15;6.63;;;6.20;99.90;;;;;;5044377;28;20248;-45
2020/12/21 09:06:34;;;;;;;16.60;6.63;;;6.30;99.90;;;;;;5044019;28;20028;-48
2020/12/21 09:09:00;;;;;;;19.25;6.50;;;6.30;99.90;;;;;;5046769;28;20387;-47
2020/12/21 09:11:26;;;;;;;11.82;6.63;;;6.30;99.90;;;;;;5047354;28;20030;-48
2020/12/21 09:13:51;;;;;;;14.55;6.75;;;6.40;99.90;;;;;;5042459;28;20415;-47
2020/12/21 09:16:18;;;;;;;11.50;5.80;;;6.40;99.90;;;;;;5045873;28;20437;-46
2020/12/21 09:18:44;;;;;;;16.77;7.20;;;6.50;99.90;;;;;;5043213;28;20025;-45
2020/12/21 09:21:16;;;;;;;11.90;6.25;;;6.60;99.90;;;;;;5039102;28;20160;-44
2020/12/21 09:23:41;;;;;;;19.67;6.60;;;6.60;99.90;;;;;;5038212;28;20021;-45
2020/12/21 09:26:07;;;;;;;12.10;5.95;;;6.70;99.90;;;;;;5037459;28;20032;-47
2020/12/21 09:28:33;;;;;;;23.23;6.38;;;6.70;99.90;;;;;;5040811;28;20022;-43
2020/12/21 09:30:58;;;;;;;14.82;6.15;;;6.80;99.90;;;;;;5040811;28;20083;-45
2020/12/21 09:33:24;;;;;;;10.23;5.60;;;6.80;99.90;;;;;;5039765;28;20017;-47
2020/12/21 09:35:49;;;;;;;10.65;5.78;;;6.90;99.90;;;;;;5040497;28;20033;-45
2020/12/21 09:38:15;;;;;;;14.32;5.40;;;7.00;99.90;;;;;;5037961;28;20037;-48
2020/12/21 09:40:40;;;;;;;9.50;5.20;;;7.00;99.90;;;;;;5039273;28;20203;-44
2020/12/21 09:43:05;;;;;;;11.40;5.57;;;7.10;99.90;;;;;;5040310;28;20039;-44
2020/12/21 09:45:31;;;;;;;12.13;5.80;;;7.20;99.90;;;;;;5037261;28;20029;-44
2020/12/21 09:47:56;;;;;;;17.70;5.93;;;7.20;99.90;;;;;;5041051;28;20438;-45
2020/12/21 09:50:22;;;;;;;9.40;5.28;;;7.20;99.90;;;;;;5038880;28;20047;-45
2020/12/21 09:52:47;;;;;;;8.70;5.32;;;7.30;99.90;;;;;;5037858;28;20049;-44
2020/12/21 09:55:15;;;;;;;16.08;5.47;;;7.30;99.90;;;;;;5036540;28;20025;-44
2020/12/21 09:57:40;;;;;;;17.60;5.63;;;7.50;99.90;;;;;;5038440;28;20013;-45
2020/12/21 10:00:06;;;;;;;9.35;5.07;;;7.40;99.90;;;;;;5037398;28;20490;-44
2020/12/21 10:02:32;;;;;;;12.15;5.28;;;7.40;99.90;;;;;;5040016;28;20261;-45
2020/12/21 10:04:58;;;;;;;15.77;5.38;;;7.50;99.90;;;;;;5038492;28;20057;-44
2020/12/21 10:07:23;;;;;;;12.00;5.38;;;7.60;99.90;;;;;;5034602;28;20675;-44
2020/12/21 10:09:49;;;;;;;12.05;5.22;;;7.60;99.90;;;;;;5039381;28;20037;-45
2020/12/21 10:12:14;;;;;;;11.57;4.43;;;7.70;99.90;;;;;;5040267;28;20510;-44
2020/12/21 10:14:43;;;;;;;8.98;4.25;;;7.70;99.90;;;;;;5039113;28;20487;-46
2020/12/21 10:17:09;;;;;;;10.63;4.90;;;7.80;99.90;;;;;;5035974;28;20372;-45
2020/12/21 10:19:34;;;;;;;10.90;4.90;;;7.90;99.90;;;;;;5038888;28;20028;-47
2020/12/21 10:22:00;;;;;;;10.18;4.50;;;7.90;99.90;;;;;;5037474;28;20018;-45
2020/12/21 10:24:25;;;;;;;11.15;4.57;;;7.90;99.90;;;;;;5036621;28;20025;-45
2020/12/21 10:26:51;;;;;;;9.77;4.43;;;7.90;99.90;;;;;;5037306;28;20079;-44
2020/12/21 10:29:16;;;;;;;10.88;4.18;;;8.00;99.90;;;;;;5037216;28;20159;-45
2020/12/21 10:31:42;;;;;;;11.45;4.40;;;8.10;99.90;;;;;;5037540;28;20395;-47
2020/12/21 10:34:07;;;;;;;7.93;4.55;;;8.20;99.90;;;;;;5037271;28;20037;-45
2020/12/21 10:36:33;;;;;;;12.20;4.90;;;8.30;99.90;;;;;;5036750;28;20107;-44
2020/12/21 10:38:59;;;;;;;9.98;3.80;;;8.40;99.90;;;;;;5037498;28;20028;-44
2020/12/21 10:41:30;;;;;;;9.73;3.47;;;8.40;99.90;;;;;;5035630;28;20025;-45
2020/12/21 10:43:56;;;;;;;9.35;3.47;;;8.70;99.90;;;;;;5038325;28;20092;-45
2020/12/21 10:46:21;;;;;;;11.20;4.13;;;9.00;99.90;;;;;;5038160;28;20038;-46
2020/12/21 10:48:48;;;;;;;8.98;3.40;;;9.70;99.90;;;;;;5037671;28;20091;-46
2020/12/21 10:51:13;;;;;;;8.98;3.53;;;10.50;99.90;;;;;;5038005;28;20025;-44
2020/12/21 10:53:39;;;;;;;8.13;4.20;;;11.70;99.90;;;;;;5037424;28;20031;-45
2020/12/21 10:56:04;;;;;;;8.98;3.45;;;12.00;99.90;;;;;;5034496;28;20029;-44
2020/12/21 10:58:31;;;;;;;12.15;3.88;;;12.80;99.90;;;;;;5038790;28;20021;-45
2020/12/21 11:00:57;;;;;;;8.95;2.95;;;13.10;97.90;;;;;;5037012;28;20014;-46
2020/12/21 11:03:22;;;;;;;7.22;3.13;;;13.40;94.70;;;;;;5037193;28;20028;-44
2020/12/21 11:05:48;;;;;;;7.57;3.00;;;12.60;96.10;;;;;;5037947;28;20062;-44
2020/12/21 11:08:13;;;;;;;9.32;3.80;;;13.00;95.50;;;;;;5032371;28;20072;-45
2020/12/21 11:10:39;;;;;;;7.50;3.35;;;13.40;93.60;;;;;;5037576;28;20029;-47
2020/12/21 11:13:04;;;;;;;10.23;3.90;;;13.00;94.60;;;;;;5036775;28;20018;-45
2020/12/21 11:15:31;;;;;;;8.40;3.53;;;12.50;95.30;;;;;;5034953;28;20581;-46
2020/12/21 11:17:56;;;;;;;8.48;3.13;;;12.30;96.80;;;;;;5038179;28;20028;-45
2020/12/21 11:20:21;;;;;;;11.93;3.22;;;11.70;99.60;;;;;;5042492;28;20482;-44
2020/12/21 11:22:47;;;;;;;7.45;3.00;;;11.60;99.90;;;;;;5038479;28;20234;-44
2020/12/21 11:25:13;;;;;;;6.20;3.17;;;11.20;99.90;;;;;;5036791;28;20017;-44
2020/12/21 11:27:38;;;;;;;7.03;3.67;;;10.60;99.90;;;;;;5037306;28;20108;-45
2020/12/21 11:30:07;;;;;;;11.40;3.50;;;10.10;99.90;;;;;;5034114;28;20026;-43
2020/12/21 11:32:37;;;;;;;8.95;3.22;;;9.80;99.90;;;;;;5037380;28;20067;-48
2020/12/21 11:35:02;;;;;;;9.68;3.38;;;9.50;99.90;;;;;;5034099;28;20021;-43
2020/12/21 11:37:27;;;;;;;14.52;3.65;;;9.20;99.90;;;;;;5033886;28;20024;-46
2020/12/21 11:39:53;;;;;;;9.38;2.88;;;9.10;99.90;;;;;;5036715;28;20529;-42
2020/12/21 11:42:19;;;;;;;9.23;2.88;;;9.10;99.90;;;;;;5038059;28;20024;-44
2020/12/21 11:44:44;;;;;;;8.40;2.70;;;9.10;99.90;;;;;;5036939;28;20059;-44
2020/12/21 11:47:13;;;;;;;8.55;3.65;;;9.20;99.90;;;;;;5037353;28;20028;-47
2020/12/21 11:49:40;;;;;;;11.18;2.97;;;9.10;99.90;;;;;;5040240;28;20386;-44
2020/12/21 11:52:06;;;;;;;5.88;3.05;;;9.10;99.90;;;;;;5041109;28;20386;-45
2020/12/21 11:54:31;;;;;;;7.88;2.78;;;9.10;99.90;;;;;;5041526;28;20035;-45
2020/12/21 11:56:57;;;;;;;9.43;3.30;;;9.10;99.90;;;;;;5026430;28;20406;-45
2020/12/21 11:59:23;;;;;;;7.07;3.65;;;9.10;99.90;;;;;;5039421;28;20475;-46
2020/12/21 12:01:55;;;;;;;14.27;3.40;;;9.10;99.90;;;;;;5041153;28;20499;-45
2020/12/21 12:04:21;;;;;;;8.50;3.55;;;9.20;99.90;;;;;;5039104;28;20025;-46
2020/12/21 12:06:47;;;;;;;8.48;3.30;;;9.20;99.90;;;;;;5041443;28;20356;-44
2020/12/21 12:09:13;;;;;;;8.38;3.67;;;9.10;99.90;;;;;;5040234;28;20033;-47
2020/12/21 12:11:38;;;;;;;8.07;3.53;;;9.00;99.90;;;;;;5039180;28;20026;-45
2020/12/21 12:14:04;;;;;;;8.90;3.70;;;9.00;99.90;;;;;;5040294;28;20058;-47
2020/12/21 12:16:29;;;;;;;8.40;2.80;;;9.00;99.90;;;;;;5038423;28;20040;-44
2020/12/21 12:18:55;;;;;;;8.90;3.17;;;9.00;99.90;;;;;;5037968;28;20021;-45
2020/12/21 12:21:21;;;;;;;8.35;3.28;;;9.00;99.90;;;;;;5051865;28;20067;-45
2020/12/21 12:23:47;;;;;;;9.25;3.22;;;9.10;99.90;;;;;;5051594;28;20013;-47
2020/12/21 12:26:17;;;;;;;12.35;3.22;;;9.10;99.90;;;;;;5032785;28;20103;-46
2020/12/21 12:28:43;;;;;;;9.53;3.60;;;9.10;99.90;;;;;;5031869;28;20060;-47
2020/12/21 12:31:08;;;;;;;12.40;4.07;;;9.10;99.90;;;;;;5031867;28;20511;-45
2020/12/21 12:33:34;;;;;;;7.47;2.90;;;9.10;99.90;;;;;;5046628;28;20104;-44
2020/12/21 12:36:00;;;;;;;4.60;2.70;;;9.10;99.90;;;;;;5050997;28;20025;-45
2020/12/21 12:38:25;;;;;;;11.90;3.30;;;9.00;99.90;;;;;;5033636;28;20483;-42
2020/12/21 12:40:50;;;;;;;11.60;3.70;;;9.00;99.90;;;;;;5038401;28;20101;-45
2020/12/21 12:43:16;;;;;;;8.05;3.53;;;9.10;99.90;;;;;;5043458;28;20021;-44